Flight Track Log - Related Links

Times and Time Zones

All times are in EDT time to prevent confusion due to time zone crossing. See the AAY891 flight status page for this flight to view local times or setup timezone preferences in your user account.

Time Position Orientation Groundspeed Altitude Reporting Facility
EDT Latitude Longitude Course Direction KTS MPH feet Rate Location/Type
Fri 06:49:30 PM 40.9781 -85.2806 146° Southeast 219 252 3,700  Level Chicago Center
Fri 06:50:32 PM 40.8947 -85.2394 160° South 266 306 7,100 2,878 Climbing Chicago Center
Fri 06:51:33 PM 40.8311 -85.1750 143° Southeast 283 326 9,600 2,262 Climbing Chicago Center
Fri 06:52:34 PM 40.7569 -85.1125 147° Southeast 313 360 11,700 1,623 Climbing Chicago Center
Fri 06:53:35 PM 40.6561 -85.1003 175° South 357 411 12,900 1,456 Climbing Chicago Center
Fri 06:54:00 PM 40.3205 -85.0473 146° Southeast  Level Estimated
Fri 06:54:17 PM 40.5722 -85.0950 177° South 391 450 14,200  Level Indianapolis Center
Fri 06:55:18 PM 40.4558 -85.0536 165° South 433 498 16,600 2,016 Climbing Indianapolis Center
Fri 06:56:19 PM 40.3419 -84.9869 156° South 442 509 18,300 1,770 Climbing Indianapolis Center
Fri 06:57:20 PM 40.2217 -84.9169 156° South 461 531 20,200 1,770 Climbing Indianapolis Center
Fri 06:58:21 PM 40.1106 -84.8506 155° Southeast 470 541 21,900 1,672 Climbing Indianapolis Center
Fri 06:59:22 PM 39.9861 -84.7786 156° South 483 556 23,600 1,918 Climbing Indianapolis Center
Fri 07:00:23 PM 39.8372 -84.6886 155° Southeast 488 562 25,800 2,066 Climbing Indianapolis Center
Fri 07:01:24 PM 39.7114 -84.6211 158° South 489 563 27,800 1,721 Climbing Indianapolis Center
Fri 07:02:25 PM 39.5833 -84.6067 175° South 471 542 29,300 1,426 Climbing Indianapolis Center
Fri 07:03:26 PM 39.4536 -84.6042 179° South 471 542 30,700 1,180 Climbing Indianapolis Center
Fri 07:04:27 PM 39.3225 -84.5986 178° South 471 542 31,700 1,131 Climbing Indianapolis Center
Fri 07:05:28 PM 39.1939 -84.5958 179° South 470 541 33,000 645 Climbing Indianapolis Center
Fri 07:06:28 PM 39.0656 -84.5908 178° South 468 539 33,000  Level Indianapolis Center
Fri 07:07:29 PM 38.9364 -84.5878 179° South 466 536 33,000  Level Indianapolis Center
Fri 07:08:30 PM 38.7892 -84.5825 178° South 465 535 33,000  Level Indianapolis Center
Fri 07:09:31 PM 38.6592 -84.5781 178° South 465 535 33,000  Level Indianapolis Center
Fri 07:10:32 PM 38.5400 -84.5753 179° South 465 535 33,000  Level Indianapolis Center
Fri 07:11:33 PM 38.4083 -84.5722 179° South 468 539 33,000  Level Indianapolis Center
Fri 07:12:34 PM 38.2794 -84.5686 179° South 468 539 33,000  Level Indianapolis Center
Fri 07:13:35 PM 38.1325 -84.5639 179° South 458 527 33,000  Level Indianapolis Center
Fri 07:15:37 PM 37.8750 -84.5553 178° South 459 528 33,000  Level Indianapolis Center
Fri 07:16:38 PM 37.7475 -84.5508 178° South 459 528 33,000  Level Indianapolis Center
Fri 07:17:39 PM 37.6208 -84.5472 179° South 458 527 33,000  Level Indianapolis Center
Fri 07:18:40 PM 37.4933 -84.5428 178° South 458 527 33,000  Level Indianapolis Center
Fri 07:19:40 PM 37.3653 -84.5383 178° South 458 527 33,000  Level Indianapolis Center
Fri 07:20:41 PM 37.2381 -84.5353 179° South 458 527 33,000  Level Indianapolis Center
Fri 07:21:42 PM 37.1106 -84.5314 179° South 458 527 33,000  Level Indianapolis Center
Fri 07:22:43 PM 36.9894 -84.5267 178° South 458 527 33,000  Level Indianapolis Center
Fri 07:23:44 PM 36.8644 -84.5233 179° South 453 521 33,000  Level Indianapolis Center
Fri 07:24:45 PM 36.7144 -84.5217 179° South 451 519 33,000  Level Indianapolis Center
Fri 07:25:46 PM 36.5919 -84.5169 178° South 444 511 33,000  Level Indianapolis Center
Fri 07:26:47 PM 36.4717 -84.5139 179° South 438 504 33,000  Level Indianapolis Center
Fri 07:27:48 PM 36.3508 -84.5122 179° South 434 499 33,000  Level Indianapolis Center
Fri 07:28:49 PM 36.2297 -84.5078 178° South 434 499 33,000 -347 Level Indianapolis Center
Fri 07:29:49 PM 36.1094 -84.5042 179° South 433 498 32,300 -992 Descending Indianapolis Center
Fri 07:30:50 PM 35.9869 -84.5008 179° South 433 498 31,000 -639 Descending Indianapolis Center
Fri 07:31:51 PM 35.8603 -84.4972 179° South 442 509 31,000  Level Indianapolis Center
Fri 07:32:52 PM 35.7347 -84.4936 179° South 445 512 31,000  Level Indianapolis Center
Fri 07:33:53 PM 35.6103 -84.4914 179° South 445 512 31,000  Level Indianapolis Center
Fri 07:34:54 PM 35.4864 -84.4872 178° South 444 511 31,000  Level Indianapolis Center
Fri 07:36:05 PM 35.3336 -84.4842 179° South 440 506 31,000  Level Atlanta Center
Fri 07:37:05 PM 35.2125 -84.4811 179° South 440 506 31,000  Level Atlanta Center
Fri 07:38:05 PM 35.0875 -84.4778 179° South 440 506 31,000  Level Atlanta Center
Fri 07:39:05 PM 34.9642 -84.4747 179° South 440 506 31,000  Level Atlanta Center
Fri 07:40:05 PM 34.8433 -84.4689 178° South 440 506 31,000  Level Atlanta Center
Fri 07:41:05 PM 34.7222 -84.4658 179° South 440 506 31,000  Level Atlanta Center
Fri 07:42:05 PM 34.6011 -84.4603 178° South 440 506 31,000  Level Atlanta Center
Fri 07:43:05 PM 34.4803 -84.4597 180° South 440 506 31,000  Level Atlanta Center
Fri 07:44:05 PM 34.3592 -84.4539 178° South 440 506 31,000  Level Atlanta Center
Fri 07:45:05 PM 34.2339 -84.4508 179° South 440 506 31,000  Level Atlanta Center
Fri 07:46:05 PM 34.1172 -84.4503 180° South 451 519 31,000  Level Atlanta Center
Fri 07:47:05 PM 33.9961 -84.4472 179° South 456 525 31,000  Level Atlanta Center
Fri 07:48:05 PM 33.8728 -84.4467 180° South 456 525 31,000  Level Atlanta Center
Fri 07:49:05 PM 33.7478 -84.4411 178° South 449 517 31,000  Level Atlanta Center
Fri 07:50:05 PM 33.6286 -84.4356 178° South 444 511 31,000  Level Atlanta Center
Fri 07:51:05 PM 33.5036 -84.4325 179° South 444 511 31,000  Level Atlanta Center
Fri 07:52:05 PM 33.3803 -84.4319 180° South 439 505 31,000  Level Atlanta Center
Fri 07:53:05 PM 33.2572 -84.4289 179° South 439 505 31,000  Level Atlanta Center
Fri 07:54:05 PM 33.1361 -84.4258 179° South 439 505 31,000  Level Atlanta Center
Fri 07:55:05 PM 33.0150 -84.4228 179° South 439 505 31,000  Level Atlanta Center
Fri 07:56:05 PM 32.8919 -84.4247 181° South 439 505 31,000  Level Atlanta Center
Fri 07:57:05 PM 32.7689 -84.4192 178° South 439 505 31,000  Level Atlanta Center
Fri 07:58:05 PM 32.6456 -84.4139 178° South 439 505 31,000  Level Atlanta Center
Fri 07:59:05 PM 32.5225 -84.4133 180° South 439 505 31,000  Level Atlanta Center
Fri 08:00:05 PM 32.3994 -84.4103 179° South 439 505 31,000  Level Atlanta Center
Fri 08:01:40 PM 32.2014 -84.4050 179° South 433 498 31,000  Level Jacksonville Center
Fri 08:02:40 PM 32.0761 -84.4028 179° South 445 512 31,000  Level Jacksonville Center
Fri 08:03:39 PM 31.9531 -84.4008 179° South 450 518 31,000  Level Jacksonville Center
Fri 08:04:39 PM 31.8278 -84.3964 178° South 450 518 31,000  Level Jacksonville Center
Fri 08:05:40 PM 31.7025 -84.3944 179° South 450 518 31,000  Level Jacksonville Center
Fri 08:06:40 PM 31.5753 -84.3922 179° South 456 525 31,000  Level Jacksonville Center
Fri 08:07:39 PM 31.4522 -84.3781 174° South 456 525 31,000  Level Jacksonville Center
Fri 08:08:40 PM 31.3294 -84.3275 161° South 456 525 31,000  Level Jacksonville Center
Fri 08:09:39 PM 31.2111 -84.2794 161° South 456 525 31,000  Level Jacksonville Center
Fri 08:10:39 PM 31.0906 -84.2317 161° South 456 525 31,000  Level Jacksonville Center
Fri 08:11:39 PM 30.9697 -84.1864 162° South 456 525 31,000  Level Jacksonville Center
Fri 08:12:39 PM 30.8514 -84.1364 160° South 461 531 31,000  Level Jacksonville Center
Fri 08:13:40 PM 30.7306 -84.0889 161° South 461 531 31,000  Level Jacksonville Center
Fri 08:14:40 PM 30.6100 -84.0414 161° South 461 531 31,000 -50 Level Jacksonville Center
Fri 08:15:39 PM 30.4811 -83.9917 162° South 461 531 30,900  Descending Jacksonville Center
Fri 08:16:39 PM 30.3603 -83.9422 161° South 461 531 31,000  Climbing Jacksonville Center
Fri 08:17:39 PM 30.2397 -83.8975 162° South 461 531 30,900 -50 Descending Jacksonville Center
Fri 08:18:39 PM 30.1208 -83.8531 162° South 456 525 30,900 -350 Level Jacksonville Center
Fri 08:19:39 PM 30.0003 -83.8064 161° South 456 525 30,200 -850 Descending Jacksonville Center
Fri 08:20:39 PM 29.8794 -83.7597 161° South 461 531 29,200 -1,000 Descending Jacksonville Center
Fri 08:21:39 PM 29.7608 -83.7133 161° South 461 531 28,200 -1,000 Descending Jacksonville Center
Fri 08:22:39 PM 29.6442 -83.6717 163° South 455 524 27,200 -1,150 Descending Jacksonville Center
Fri 08:23:39 PM 29.5317 -83.6253 160° South 444 511 25,900 -1,300 Descending Jacksonville Center
Fri 08:24:39 PM 29.4253 -83.5864 162° South 439 505 24,600 -942 Descending Jacksonville Center
Fri 08:25:40 PM 29.3150 -83.5450 162° South 439 505 24,000 -350 Descending Jacksonville Center
Fri 08:26:39 PM 29.2044 -83.5017 161° South 429 494 23,900 -151 Descending Jacksonville Center
Fri 08:27:39 PM 29.0919 -83.4606 162° South 424 488 23,700 -793 Descending Jacksonville Center
Fri 08:28:40 PM 28.9772 -83.4456 173° South 418 481 22,300 -1,600 Descending Jacksonville Center
Fri 08:29:39 PM 28.8647 -83.4331 174° South 413 475 20,500 -1,815 Descending Jacksonville Center
Fri 08:30:39 PM 28.7497 -83.4231 176° South 413 475 18,700 -1,750 Descending Jacksonville Center
Fri 08:31:39 PM 28.6392 -83.4247 181° South 408 470 17,000 -2,132 Descending Jacksonville Center
Fri 08:33:11 PM 28.4744 -83.4300 182° South 376 433 13,300 -1,569 Descending Miami Center
Fri 08:34:12 PM 28.4075 -83.3639 139° Southeast 339 390 13,000 -148 Descending Miami Center
Fri 08:35:13 PM 28.3561 -83.2853 127° Southeast 314 361 13,000  Level Miami Center
Fri 08:36:14 PM 28.2908 -83.2222 140° Southeast 312 359 13,000 -49 Level Miami Center
Fri 08:37:15 PM 28.2228 -83.1589 141° Southeast 313 360 12,900 -787 Descending Miami Center
Fri 08:38:16 PM 28.1564 -83.0969 141° Southeast 313 360 11,400 -1,623 Descending Miami Center
Fri 08:39:17 PM 28.0869 -83.0408 145° Southeast 309 356 9,600 -1,672 Descending Miami Center
Fri 08:40:18 PM 28.0286 -82.9786 137° Southeast 296 341 8,000 -1,574 Descending Miami Center
Fri 08:41:19 PM 27.9939 -82.8994 116° Southeast 284 327 6,400 -1,721 Descending Miami Center
Fri 08:42:20 PM 27.9211 -82.8397 144° Southeast 281 323 4,500 -1,636 Descending Miami Center
Fri 08:43:20 PM 27.8542 -82.8006 153° Southeast 274 315 3,100 -1,091 Descending Miami Center
Fri 08:44:21 PM 27.7961 -82.7636 151° Southeast 250 288 2,300 -689 Descending Miami Center
Fri 08:45:22 PM 27.8031 -82.6989 83° East 228 262 1,700 -590 Descending Miami Center
Fri 08:46:23 PM 27.8400 -82.6769 28° Northeast 190 219 1,100 -639 Descending Miami Center
Fri 08:47:24 PM 27.8819 -82.6836 352° North 166 191 400 -689 Descending Miami Center

Login

Don't have an account? Register now (free) for customized features, flight alerts, and more!